createdAt,value
2018-03-31T00:00:38.691Z,15.88
2018-03-31T00:01:40.747Z,17.60
2018-03-31T00:02:42.802Z,18.48
2018-03-31T00:03:44.895Z,17.48
2018-03-31T00:04:46.964Z,17.98
2018-03-31T00:05:48.993Z,18.33
2018-03-31T00:06:51.020Z,18.95
2018-03-31T00:07:53.049Z,18.90
2018-03-31T00:08:55.841Z,18.12
2018-03-31T00:09:57.901Z,17.40
2018-03-31T00:10:59.929Z,17.35
2018-03-31T00:12:02.775Z,18.77
2018-03-31T00:13:04.805Z,17.85
2018-03-31T00:14:06.837Z,17.45
2018-03-31T00:15:08.868Z,17.60
2018-03-31T00:16:10.897Z,17.77
2018-03-31T00:17:12.976Z,18.00
2018-03-31T00:18:15.009Z,18.10
2018-03-31T00:19:17.820Z,17.75
2018-03-31T00:20:19.851Z,18.33
2018-03-31T00:21:22.702Z,17.08
2018-03-31T00:22:25.541Z,17.50
2018-03-31T00:23:27.569Z,17.85
2018-03-31T00:24:29.604Z,16.73
2018-03-31T00:25:32.394Z,17.95
2018-03-31T00:26:34.464Z,18.92
2018-03-31T00:27:36.492Z,17.45
2018-03-31T00:28:38.525Z,17.50
2018-03-31T00:29:40.565Z,16.90
2018-03-31T00:30:42.594Z,16.73
2018-03-31T00:31:44.656Z,16.55
2018-03-31T00:32:46.696Z,17.48
2018-03-31T00:33:48.733Z,16.45
2018-03-31T00:34:50.761Z,16.85
2018-03-31T00:35:53.552Z,18.05
2018-03-31T00:36:55.618Z,17.42
2018-03-31T00:37:57.644Z,16.73
2018-03-31T00:39:00.469Z,16.30
2018-03-31T00:40:02.512Z,16.12
2018-03-31T00:41:04.541Z,18.15
2018-03-31T00:42:06.574Z,17.37
2018-03-31T00:43:09.410Z,17.23
2018-03-31T00:44:11.465Z,17.55
2018-03-31T00:45:13.499Z,16.55
2018-03-31T00:46:15.569Z,17.55
2018-03-31T00:47:17.602Z,17.62
2018-03-31T00:48:19.622Z,17.20
2018-03-31T00:49:22.428Z,17.98
2018-03-31T00:50:24.473Z,17.73
2018-03-31T00:51:26.529Z,17.20
2018-03-31T00:52:28.573Z,17.33
2018-03-31T00:53:31.368Z,18.30
2018-03-31T00:54:33.411Z,16.10
2018-03-31T00:55:35.464Z,17.20
2018-03-31T00:56:37.522Z,16.87
2018-03-31T00:57:39.601Z,17.00
2018-03-31T00:58:41.641Z,16.45
2018-03-31T00:59:43.721Z,17.35
2018-03-31T01:00:45.749Z,17.77
2018-03-31T01:01:47.788Z,17.62
2018-03-31T01:02:49.818Z,16.70
2018-03-31T01:03:51.857Z,17.15
2018-03-31T01:04:53.926Z,17.42
2018-03-31T01:05:55.952Z,18.20
2018-03-31T01:06:58.032Z,15.80
2018-03-31T01:08:00.061Z,16.40
2018-03-31T01:09:02.101Z,16.80
2018-03-31T01:10:04.138Z,17.65
2018-03-31T01:11:06.164Z,16.55
2018-03-31T01:12:09.011Z,16.95
2018-03-31T01:13:11.040Z,15.90
2018-03-31T01:14:13.073Z,16.80
2018-03-31T01:15:15.105Z,17.30
2018-03-31T01:16:17.903Z,16.17
2018-03-31T01:17:19.982Z,17.10
2018-03-31T01:18:22.037Z,17.90
2018-03-31T01:19:24.084Z,16.48
2018-03-31T01:20:26.125Z,17.75
2018-03-31T01:21:28.149Z,17.02
2018-03-31T01:22:30.936Z,15.88
2018-03-31T01:23:32.997Z,17.52
2018-03-31T01:24:35.025Z,15.88
2018-03-31T01:25:37.813Z,16.48
2018-03-31T01:26:39.848Z,17.75
2018-03-31T01:27:42.645Z,17.35
2018-03-31T01:28:44.726Z,16.70
2018-03-31T01:29:46.755Z,15.88
2018-03-31T01:30:48.791Z,15.27
2018-03-31T01:31:51.597Z,15.75
2018-03-31T01:32:53.621Z,16.70
2018-03-31T01:33:56.459Z,15.68
2018-03-31T01:34:58.516Z,16.60
2018-03-31T01:36:00.552Z,16.20
2018-03-31T01:37:02.581Z,16.90
2018-03-31T01:38:04.653Z,16.87
2018-03-31T01:39:06.681Z,16.15
2018-03-31T01:40:08.741Z,17.83
2018-03-31T01:41:10.777Z,15.93
2018-03-31T01:42:13.575Z,16.67
2018-03-31T01:43:15.649Z,16.10
2018-03-31T01:44:17.721Z,16.20
2018-03-31T01:45:19.749Z,15.65
2018-03-31T01:46:21.818Z,16.42
2018-03-31T01:47:23.850Z,16.98
2018-03-31T01:48:25.882Z,16.67
2018-03-31T01:49:27.908Z,16.50
2018-03-31T01:50:29.937Z,18.12
2018-03-31T01:51:32.010Z,16.87
2018-03-31T01:52:34.053Z,17.12
2018-03-31T01:53:36.077Z,16.48
2018-03-31T01:54:38.137Z,17.52
2018-03-31T01:55:40.179Z,18.37
2018-03-31T01:56:42.201Z,18.67
2018-03-31T01:57:44.994Z,18.98
2018-03-31T01:58:47.061Z,17.90
2018-03-31T01:59:49.168Z,17.35
2018-03-31T02:00:52.008Z,17.80
2018-03-31T02:01:54.069Z,18.12
2018-03-31T02:02:56.102Z,18.73
2018-03-31T02:03:58.175Z,18.70
2018-03-31T02:05:00.198Z,18.10
2018-03-31T02:06:02.242Z,19.05
2018-03-31T02:07:04.304Z,19.37
2018-03-31T02:08:06.341Z,18.83
2018-03-31T02:09:09.270Z,19.45
2018-03-31T02:10:11.317Z,19.02
2018-03-31T02:11:13.385Z,19.90
2018-03-31T02:12:15.422Z,19.45
2018-03-31T02:13:17.453Z,20.10
2018-03-31T02:14:19.519Z,20.00
2018-03-31T02:15:21.590Z,19.15
2018-03-31T02:16:23.616Z,19.30
2018-03-31T02:17:25.684Z,19.60
2018-03-31T02:18:27.741Z,19.48
2018-03-31T02:19:29.811Z,19.27
2018-03-31T02:20:31.840Z,19.58
2018-03-31T02:21:33.866Z,18.83
2018-03-31T02:22:35.908Z,19.17
2018-03-31T02:23:37.967Z,19.33
2018-03-31T02:24:39.997Z,18.00
2018-03-31T02:25:42.071Z,18.58
2018-03-31T02:26:44.098Z,19.55
2018-03-31T02:27:46.127Z,19.70
2018-03-31T02:28:48.192Z,19.25
2018-03-31T02:29:50.229Z,19.87
2018-03-31T02:30:52.299Z,18.15
2018-03-31T02:31:54.325Z,19.60
2018-03-31T02:32:57.168Z,19.95
2018-03-31T02:33:59.203Z,19.67
2018-03-31T02:35:01.237Z,20.65
2018-03-31T02:36:03.275Z,18.83
2018-03-31T02:37:05.305Z,19.35
2018-03-31T02:38:08.231Z,20.05
2018-03-31T02:39:10.262Z,19.37
2018-03-31T02:40:12.299Z,20.17
2018-03-31T02:41:15.100Z,19.27
2018-03-31T02:42:17.129Z,19.05
2018-03-31T02:43:19.977Z,19.45
2018-03-31T02:44:22.014Z,19.75
2018-03-31T02:45:24.037Z,20.15
2018-03-31T02:46:26.069Z,21.65
2018-03-31T02:47:28.865Z,20.85
2018-03-31T02:48:30.936Z,21.55
2018-03-31T02:49:32.978Z,22.17
2018-03-31T02:50:35.011Z,21.80
2018-03-31T02:51:37.045Z,20.98
2018-03-31T02:52:39.833Z,21.40
2018-03-31T02:53:41.917Z,22.55
2018-03-31T02:54:43.942Z,21.20
2018-03-31T02:55:45.992Z,20.77
2018-03-31T02:56:48.798Z,22.35
2018-03-31T02:57:50.838Z,22.35
2018-03-31T02:58:52.915Z,22.73
2018-03-31T02:59:54.951Z,22.75
2018-03-31T03:00:57.017Z,25.00
2018-03-31T03:01:59.054Z,22.90
2018-03-31T03:03:01.098Z,24.05
2018-03-31T03:04:03.136Z,24.48
2018-03-31T03:05:05.938Z,23.95
2018-03-31T03:06:08.020Z,23.70
2018-03-31T03:07:10.049Z,25.27
2018-03-31T03:08:12.086Z,25.48
2018-03-31T03:09:14.126Z,25.17
2018-03-31T03:10:16.929Z,24.67
2018-03-31T03:11:18.992Z,28.25
2018-03-31T03:12:21.023Z,27.10
2018-03-31T03:13:23.849Z,28.02
2018-03-31T03:14:25.881Z,28.12
2018-03-31T03:15:27.910Z,27.48
2018-03-31T03:16:29.946Z,27.67
2018-03-31T03:17:32.781Z,28.12
2018-03-31T03:18:34.813Z,27.83
2018-03-31T03:19:36.844Z,27.87
2018-03-31T03:20:38.869Z,27.50
2018-03-31T03:21:40.945Z,28.25
2018-03-31T03:22:43.744Z,28.80
2018-03-31T03:23:45.769Z,26.73
2018-03-31T03:24:48.568Z,27.05
2018-03-31T03:25:50.602Z,27.65
2018-03-31T03:26:53.434Z,27.95
2018-03-31T03:27:55.466Z,26.55
2018-03-31T03:28:57.543Z,27.80
2018-03-31T03:29:59.572Z,27.33
2018-03-31T03:31:01.612Z,27.37
2018-03-31T03:32:03.668Z,27.00
2018-03-31T03:33:05.692Z,27.48
2018-03-31T03:34:08.514Z,26.00
2018-03-31T03:35:10.548Z,25.37
2018-03-31T03:36:12.569Z,24.92
2018-03-31T03:37:15.403Z,25.75
2018-03-31T03:38:17.433Z,25.95
2018-03-31T03:39:19.490Z,24.75
2018-03-31T03:40:21.522Z,25.05
2018-03-31T03:41:23.556Z,23.83
2018-03-31T03:42:25.594Z,23.83
2018-03-31T03:43:27.670Z,22.48
2018-03-31T03:44:30.510Z,24.50
2018-03-31T03:45:32.561Z,22.10
2018-03-31T03:46:34.626Z,22.80
2018-03-31T03:47:36.665Z,22.77
2018-03-31T03:48:38.699Z,22.98
2018-03-31T03:49:40.726Z,24.67
2018-03-31T03:50:43.524Z,21.95
2018-03-31T03:51:45.593Z,24.77
2018-03-31T03:52:47.637Z,23.77
2018-03-31T03:53:49.669Z,24.05
2018-03-31T03:54:51.698Z,24.42
2018-03-31T03:55:53.725Z,24.15
2018-03-31T03:56:55.802Z,26.10
2018-03-31T03:57:57.824Z,24.75
2018-03-31T03:58:59.857Z,24.25
2018-03-31T04:00:01.891Z,24.30
2018-03-31T04:01:04.682Z,25.98
2018-03-31T04:02:06.744Z,26.92
2018-03-31T04:03:08.804Z,23.83
2018-03-31T04:04:10.843Z,22.50
2018-03-31T04:05:12.877Z,22.75
2018-03-31T04:06:15.678Z,23.92
2018-03-31T04:07:17.756Z,22.85
2018-03-31T04:08:19.800Z,23.65
2018-03-31T04:09:21.831Z,24.75
2018-03-31T04:10:23.864Z,23.67
2018-03-31T04:11:25.894Z,22.90
2018-03-31T04:12:27.957Z,24.92
2018-03-31T04:13:29.989Z,24.40
2018-03-31T04:14:32.017Z,22.02
2018-03-31T04:15:34.052Z,22.77
2018-03-31T04:16:36.108Z,24.73
2018-03-31T04:17:38.179Z,24.25
2018-03-31T04:18:40.210Z,23.67
2018-03-31T04:19:43.044Z,24.60
2018-03-31T04:20:45.080Z,23.50
2018-03-31T04:21:47.132Z,25.33
2018-03-31T04:22:49.180Z,24.60
2018-03-31T04:23:51.249Z,23.95
2018-03-31T04:24:53.269Z,25.35
2018-03-31T04:25:55.297Z,24.87
2018-03-31T04:26:57.379Z,24.73
2018-03-31T04:27:59.423Z,23.65
2018-03-31T04:29:01.462Z,24.30
2018-03-31T04:30:04.261Z,25.37
2018-03-31T04:31:06.294Z,25.23
2018-03-31T04:32:09.126Z,26.73
2018-03-31T04:33:11.150Z,24.20
2018-03-31T04:34:13.179Z,25.85
2018-03-31T04:35:15.973Z,25.90
2018-03-31T04:36:18.006Z,24.55
2018-03-31T04:37:20.847Z,24.15
2018-03-31T04:38:22.868Z,26.23
2018-03-31T04:39:24.905Z,27.10
2018-03-31T04:40:26.944Z,28.20
2018-03-31T04:41:29.017Z,26.87
2018-03-31T04:42:31.056Z,27.92
2018-03-31T04:43:33.081Z,26.23
2018-03-31T04:44:35.117Z,26.40
2018-03-31T04:45:37.137Z,27.13
2018-03-31T04:46:39.197Z,27.45
2018-03-31T04:47:41.230Z,26.60
2018-03-31T04:48:43.283Z,26.90
2018-03-31T04:49:45.352Z,27.25
2018-03-31T04:50:47.386Z,25.50
2018-03-31T04:51:50.232Z,25.40
2018-03-31T04:52:52.295Z,26.50
2018-03-31T04:53:54.327Z,26.85
2018-03-31T04:54:56.357Z,26.50
2018-03-31T04:55:58.512Z,25.90
2018-03-31T04:57:00.555Z,25.58
2018-03-31T04:58:02.611Z,26.42
2018-03-31T04:59:04.642Z,25.98
2018-03-31T05:00:07.481Z,25.80
2018-03-31T05:01:09.512Z,26.37
2018-03-31T05:02:11.569Z,27.65
2018-03-31T05:03:13.607Z,25.05
2018-03-31T05:04:15.633Z,26.50
2018-03-31T05:05:18.470Z,26.58
2018-03-31T05:06:20.521Z,30.20
2018-03-31T05:07:22.558Z,28.42
2018-03-31T05:08:24.609Z,27.90
2018-03-31T05:09:26.634Z,28.17
2018-03-31T05:10:28.694Z,29.85
2018-03-31T05:11:30.783Z,27.65
2018-03-31T05:12:32.809Z,28.45
2018-03-31T05:13:34.839Z,29.17
2018-03-31T05:14:37.630Z,30.02
2018-03-31T05:15:39.667Z,27.80
2018-03-31T05:16:42.506Z,30.42
2018-03-31T05:17:44.548Z,36.35
2018-03-31T05:18:46.577Z,34.83
2018-03-31T05:19:48.602Z,33.75
2018-03-31T05:20:51.418Z,38.00
2018-03-31T05:21:53.484Z,34.75
2018-03-31T05:22:55.561Z,36.78
2018-03-31T05:23:57.587Z,34.80
2018-03-31T05:24:59.608Z,35.70
2018-03-31T05:26:01.648Z,35.28
2018-03-31T05:27:04.453Z,35.10
2018-03-31T05:28:06.536Z,35.67
2018-03-31T05:29:08.569Z,36.85
2018-03-31T05:30:10.598Z,37.15
2018-03-31T05:31:12.632Z,36.88
2018-03-31T05:32:15.418Z,37.10
2018-03-31T05:33:18.262Z,36.63
2018-03-31T05:34:20.289Z,36.75
2018-03-31T05:35:22.336Z,39.30
2018-03-31T05:36:24.370Z,37.10
2018-03-31T05:37:26.405Z,38.10
2018-03-31T05:38:29.252Z,36.20
2018-03-31T05:39:31.278Z,35.53
2018-03-31T05:40:33.485Z,37.28
2018-03-31T05:41:36.286Z,38.80
2018-03-31T05:42:38.314Z,39.88
2018-03-31T05:43:41.138Z,39.75
2018-03-31T05:44:43.179Z,38.53
2018-03-31T05:45:45.213Z,39.35
2018-03-31T05:46:47.274Z,40.83
2018-03-31T05:47:49.310Z,39.10
2018-03-31T05:48:52.108Z,52.47
2018-03-31T05:49:54.156Z,62.15
2018-03-31T05:50:56.193Z,71.07
2018-03-31T05:51:59.133Z,57.90
2018-03-31T05:53:01.164Z,44.25
2018-03-31T05:54:03.194Z,37.38
2018-03-31T05:55:05.286Z,36.25
2018-03-31T05:56:07.315Z,34.42
2018-03-31T05:57:09.346Z,32.58
2018-03-31T05:58:11.368Z,33.22
2018-03-31T05:59:13.429Z,33.40
2018-03-31T06:00:15.462Z,32.42
2018-03-31T06:01:17.502Z,32.30
2018-03-31T06:02:19.562Z,33.03
2018-03-31T06:03:21.594Z,31.77
2018-03-31T06:04:23.636Z,31.67
2018-03-31T06:05:25.718Z,32.75
2018-03-31T06:06:27.754Z,33.10
2018-03-31T06:07:29.785Z,31.90
2018-03-31T06:08:32.587Z,30.90
2018-03-31T06:09:34.625Z,32.30
2018-03-31T06:10:36.686Z,29.90
2018-03-31T06:11:38.715Z,31.80
2018-03-31T06:12:41.567Z,29.95
2018-03-31T06:13:43.598Z,31.00
2018-03-31T06:14:45.621Z,30.40
2018-03-31T06:15:47.644Z,31.45
2018-03-31T06:16:50.446Z,29.40
2018-03-31T06:17:52.508Z,29.48
2018-03-31T06:18:54.533Z,29.70
2018-03-31T06:19:57.330Z,29.80
2018-03-31T06:20:59.357Z,31.02
2018-03-31T06:22:02.198Z,31.05
2018-03-31T06:23:04.267Z,32.65
2018-03-31T06:24:06.308Z,30.52
2018-03-31T06:25:08.336Z,29.98
2018-03-31T06:26:10.369Z,31.15
2018-03-31T06:27:12.433Z,32.70
2018-03-31T06:28:14.506Z,31.40
2018-03-31T06:29:16.544Z,30.70
2018-03-31T06:30:18.581Z,30.52
2018-03-31T06:31:20.614Z,32.08
2018-03-31T06:32:22.669Z,30.27
2018-03-31T06:33:25.504Z,31.95
2018-03-31T06:34:27.552Z,31.55
2018-03-31T06:35:29.593Z,33.30
2018-03-31T06:36:31.657Z,34.35
2018-03-31T06:37:33.688Z,32.53
2018-03-31T06:38:35.718Z,33.03
2018-03-31T06:39:38.519Z,31.90
2018-03-31T06:40:40.549Z,31.45
2018-03-31T06:41:43.453Z,32.00
2018-03-31T06:42:45.482Z,31.85
2018-03-31T06:43:48.321Z,31.17
2018-03-31T06:44:50.346Z,31.27
2018-03-31T06:45:52.369Z,34.03
2018-03-31T06:46:55.196Z,33.35
2018-03-31T06:47:57.229Z,35.03
2018-03-31T06:48:59.265Z,34.75
2018-03-31T06:50:01.293Z,34.90
2018-03-31T06:51:04.114Z,36.95
2018-03-31T06:52:06.148Z,33.38
2018-03-31T06:53:08.182Z,35.88
2018-03-31T06:54:10.977Z,33.58
2018-03-31T06:55:13.042Z,35.17
2018-03-31T06:56:15.113Z,35.28
2018-03-31T06:57:17.141Z,48.70
2018-03-31T06:58:19.172Z,37.08
2018-03-31T06:59:21.222Z,36.55
2018-03-31T07:00:24.035Z,35.15
2018-03-31T07:01:26.105Z,36.25
2018-03-31T07:02:28.126Z,33.85
2018-03-31T07:03:30.166Z,35.35
2018-03-31T07:04:32.984Z,36.58
2018-03-31T07:05:35.011Z,37.50
2018-03-31T07:06:37.218Z,32.58
2018-03-31T07:07:40.176Z,32.78
2018-03-31T07:08:42.254Z,40.30
2018-03-31T07:09:44.306Z,35.33
2018-03-31T07:10:46.353Z,34.03
2018-03-31T07:11:48.392Z,34.33
2018-03-31T07:12:50.452Z,30.67
2018-03-31T07:13:52.510Z,31.25
2018-03-31T07:14:54.534Z,29.63
2018-03-31T07:15:56.564Z,30.55
2018-03-31T07:16:58.605Z,28.90
2018-03-31T07:18:01.410Z,27.98
2018-03-31T07:19:03.736Z,29.87
2018-03-31T07:20:05.801Z,30.35
2018-03-31T07:21:08.602Z,27.58
2018-03-31T07:22:10.629Z,30.73
2018-03-31T07:23:13.417Z,34.65
2018-03-31T07:24:15.469Z,30.83
2018-03-31T07:25:17.537Z,30.20
2018-03-31T07:26:19.560Z,31.23
2018-03-31T07:27:22.374Z,31.98
2018-03-31T07:28:24.402Z,29.50
2018-03-31T07:29:26.460Z,37.20
2018-03-31T07:30:28.490Z,30.25
2018-03-31T07:31:30.551Z,32.15
2018-03-31T07:32:33.464Z,33.35
2018-03-31T07:33:35.497Z,30.80
2018-03-31T07:34:37.525Z,32.47
2018-03-31T07:35:39.572Z,31.33
2018-03-31T07:36:41.644Z,34.55
2018-03-31T07:37:44.432Z,35.88
2018-03-31T07:38:46.453Z,30.88
2018-03-31T07:39:48.489Z,34.78
2018-03-31T07:40:50.518Z,33.42
2018-03-31T07:41:52.587Z,35.05
2018-03-31T07:42:54.722Z,35.25
2018-03-31T07:43:56.749Z,33.03
2018-03-31T07:44:59.536Z,37.38
2018-03-31T07:46:01.573Z,42.10
2018-03-31T07:47:04.414Z,33.78
2018-03-31T07:48:06.461Z,41.03
2018-03-31T07:49:08.493Z,33.60
2018-03-31T07:50:10.525Z,32.58
2018-03-31T07:51:12.549Z,36.05
2018-03-31T07:52:14.621Z,35.38
2018-03-31T07:53:17.410Z,37.10
2018-03-31T07:54:19.446Z,35.28
2018-03-31T07:55:22.238Z,33.10
2018-03-31T07:56:24.275Z,38.35
2018-03-31T07:57:26.345Z,33.13
2018-03-31T07:58:28.379Z,31.87
2018-03-31T07:59:31.207Z,32.95
2018-03-31T08:00:33.233Z,32.33
2018-03-31T08:01:35.274Z,37.72
2018-03-31T08:02:37.306Z,36.47
2018-03-31T08:03:39.330Z,34.90
2018-03-31T08:04:41.424Z,32.35
2018-03-31T08:05:44.224Z,33.50
2018-03-31T08:06:46.268Z,34.97
2018-03-31T08:07:48.341Z,32.58
2018-03-31T08:08:50.374Z,33.50
2018-03-31T08:09:52.405Z,36.80
2018-03-31T08:10:54.433Z,35.38
2018-03-31T08:11:56.470Z,34.03
2018-03-31T08:12:58.539Z,35.72
2018-03-31T08:14:00.586Z,34.53
2018-03-31T08:15:02.605Z,34.58
2018-03-31T08:16:04.640Z,36.92
2018-03-31T08:17:07.424Z,34.60
2018-03-31T08:18:10.248Z,35.78
2018-03-31T08:19:12.275Z,36.83
2018-03-31T08:20:14.342Z,36.55
2018-03-31T08:21:16.370Z,34.75
2018-03-31T08:22:18.439Z,33.85
2018-03-31T08:23:20.478Z,35.80
2018-03-31T08:24:22.541Z,36.53
2018-03-31T08:25:24.606Z,36.22
2018-03-31T08:26:26.633Z,34.17
2018-03-31T08:27:29.439Z,37.17
2018-03-31T08:28:31.477Z,35.55
2018-03-31T08:29:33.530Z,38.15
2018-03-31T08:30:36.423Z,36.95
2018-03-31T08:31:38.465Z,38.92
2018-03-31T08:32:41.431Z,43.15
2018-03-31T08:33:43.469Z,38.03
2018-03-31T08:34:46.298Z,37.72
2018-03-31T08:35:48.326Z,36.92
2018-03-31T08:36:50.376Z,37.05
2018-03-31T08:37:52.536Z,38.95
2018-03-31T08:38:54.719Z,38.20
2018-03-31T08:39:56.769Z,38.03
2018-03-31T08:40:58.803Z,39.53
2018-03-31T08:42:00.864Z,41.28
2018-03-31T08:43:02.896Z,40.05
2018-03-31T08:44:04.971Z,41.00
2018-03-31T08:45:07.044Z,39.47
2018-03-31T08:46:09.060Z,40.67
2018-03-31T08:47:11.120Z,42.20
2018-03-31T08:48:13.900Z,42.17
2018-03-31T08:49:15.957Z,40.03
2018-03-31T08:50:17.976Z,38.92
2018-03-31T08:51:20.770Z,39.85
2018-03-31T08:52:22.816Z,41.67
2018-03-31T08:53:24.933Z,40.33
2018-03-31T08:54:26.973Z,39.95
2018-03-31T08:55:29.002Z,40.78
2018-03-31T08:56:31.036Z,40.58
2018-03-31T08:57:33.828Z,41.33
2018-03-31T08:58:35.900Z,41.10
2018-03-31T08:59:37.932Z,40.95
2018-03-31T09:00:39.965Z,39.78
2018-03-31T09:01:42.799Z,39.50
2018-03-31T09:02:45.054Z,39.65
2018-03-31T09:03:47.083Z,38.70
2018-03-31T09:04:49.321Z,40.83
2018-03-31T09:05:51.468Z,41.37
2018-03-31T09:06:54.636Z,40.65
2018-03-31T09:07:57.042Z,40.85
2018-03-31T09:08:59.311Z,38.95
2018-03-31T09:10:01.423Z,42.83
2018-03-31T09:11:03.473Z,42.72
2018-03-31T09:12:05.506Z,40.12
2018-03-31T09:13:07.532Z,40.10
2018-03-31T09:14:09.706Z,41.30
2018-03-31T09:15:11.822Z,38.88
2018-03-31T09:16:14.768Z,38.50
2018-03-31T09:17:16.820Z,42.45
2018-03-31T09:18:18.893Z,42.15
2018-03-31T09:19:21.796Z,41.50
2018-03-31T09:20:23.876Z,42.45
2018-03-31T09:21:25.913Z,42.65
2018-03-31T09:22:27.941Z,42.10
2018-03-31T09:23:30.763Z,43.70
2018-03-31T09:24:32.793Z,41.50
2018-03-31T09:25:34.865Z,43.03
2018-03-31T09:26:36.902Z,41.08
2018-03-31T09:27:38.932Z,40.55
2018-03-31T09:28:40.963Z,41.55
2018-03-31T09:29:43.007Z,42.00
2018-03-31T09:30:45.074Z,39.80
2018-03-31T09:31:47.100Z,39.40
2018-03-31T09:32:49.138Z,38.08
2018-03-31T09:33:51.181Z,41.95
2018-03-31T09:34:53.210Z,43.13
2018-03-31T09:35:56.042Z,39.50
2018-03-31T09:36:58.078Z,39.88
2018-03-31T09:38:00.110Z,45.28
2018-03-31T09:39:02.150Z,42.25
2018-03-31T09:40:04.206Z,38.75
2018-03-31T09:41:06.248Z,38.63
2018-03-31T09:42:09.074Z,37.85
2018-03-31T09:43:11.099Z,38.28
2018-03-31T09:44:13.138Z,36.25
2018-03-31T09:45:15.974Z,39.33
2018-03-31T09:46:18.006Z,38.63
2018-03-31T09:47:20.047Z,36.88
2018-03-31T09:48:22.082Z,36.50
2018-03-31T09:49:24.145Z,36.33
2018-03-31T09:50:26.197Z,37.17
2018-03-31T09:51:28.231Z,37.58
2018-03-31T09:52:31.033Z,35.83
2018-03-31T09:53:33.094Z,36.90
2018-03-31T09:54:35.116Z,35.90
2018-03-31T09:55:37.961Z,37.50
2018-03-31T09:56:39.997Z,36.40
2018-03-31T09:57:42.039Z,37.75
2018-03-31T09:58:44.070Z,37.70
2018-03-31T09:59:46.103Z,35.78
2018-03-31T10:00:48.954Z,34.25
2018-03-31T10:01:51.002Z,34.15
2018-03-31T10:02:53.034Z,36.08
2018-03-31T10:03:55.062Z,34.85
2018-03-31T10:04:57.104Z,33.45
2018-03-31T10:05:59.325Z,34.33
2018-03-31T10:07:01.367Z,33.90
2018-03-31T10:08:03.437Z,36.78
2018-03-31T10:09:05.465Z,35.58
2018-03-31T10:10:07.487Z,37.10
2018-03-31T10:11:09.532Z,34.30
2018-03-31T10:12:11.562Z,37.85
2018-03-31T10:13:13.648Z,42.20
2018-03-31T10:14:15.709Z,40.78
2018-03-31T10:15:17.744Z,38.40
2018-03-31T10:16:20.577Z,37.03
2018-03-31T10:17:22.607Z,36.42
2018-03-31T10:18:24.666Z,41.63
2018-03-31T10:19:26.706Z,35.15
2018-03-31T10:20:28.794Z,38.95
2018-03-31T10:21:30.825Z,34.13
2018-03-31T10:22:32.868Z,36.25
2018-03-31T10:23:34.933Z,36.08
2018-03-31T10:24:36.964Z,37.08
2018-03-31T10:25:39.037Z,40.15
2018-03-31T10:26:41.081Z,39.30
2018-03-31T10:27:43.112Z,37.40
2018-03-31T10:28:45.917Z,36.42
2018-03-31T10:29:47.957Z,34.55
2018-03-31T10:30:50.035Z,33.72
2018-03-31T10:31:52.070Z,34.30
2018-03-31T10:32:54.101Z,34.75
2018-03-31T10:33:56.907Z,33.50
2018-03-31T10:34:58.941Z,34.25
2018-03-31T10:36:01.779Z,35.50
2018-03-31T10:37:03.814Z,33.80
2018-03-31T10:38:05.841Z,32.30
2018-03-31T10:39:07.870Z,32.92
2018-03-31T10:40:10.700Z,32.25
2018-03-31T10:41:12.779Z,33.55
2018-03-31T10:42:14.836Z,33.88
2018-03-31T10:43:16.886Z,32.35
2018-03-31T10:44:18.925Z,32.25
2018-03-31T10:45:20.990Z,33.03
2018-03-31T10:46:23.013Z,32.15
2018-03-31T10:47:25.125Z,31.35
2018-03-31T10:48:27.123Z,32.15
2018-03-31T10:49:29.164Z,32.40
2018-03-31T10:50:31.241Z,32.58
2018-03-31T10:51:33.275Z,32.95
2018-03-31T10:52:35.292Z,31.98
2018-03-31T10:53:38.084Z,31.08
2018-03-31T10:54:40.117Z,31.50
2018-03-31T10:55:42.953Z,30.35
2018-03-31T10:56:45.024Z,32.85
2018-03-31T10:57:47.095Z,30.83
2018-03-31T10:58:49.121Z,29.67
2018-03-31T10:59:51.145Z,30.05
2018-03-31T11:00:53.520Z,32.40
2018-03-31T11:01:55.581Z,33.33
2018-03-31T11:02:57.614Z,32.33
2018-03-31T11:03:59.646Z,31.73
2018-03-31T11:05:02.446Z,33.75
2018-03-31T11:06:04.478Z,31.80
2018-03-31T11:07:07.309Z,31.65
2018-03-31T11:08:09.344Z,34.53
2018-03-31T11:09:11.388Z,32.78
2018-03-31T11:10:13.412Z,33.67
2018-03-31T11:11:15.449Z,33.95
2018-03-31T11:12:18.276Z,33.28
2018-03-31T11:13:20.317Z,31.15
2018-03-31T11:14:22.373Z,32.70
2018-03-31T11:15:24.404Z,31.42
2018-03-31T11:16:27.236Z,32.10
2018-03-31T11:17:29.281Z,32.33
2018-03-31T11:18:31.345Z,31.67
2018-03-31T11:19:33.424Z,31.70
2018-03-31T11:20:36.226Z,32.67
2018-03-31T11:21:38.257Z,31.50
2018-03-31T11:22:41.059Z,33.65
2018-03-31T11:23:43.090Z,34.63
2018-03-31T11:24:45.197Z,32.97
2018-03-31T11:25:47.264Z,32.92
2018-03-31T11:26:49.297Z,33.45
2018-03-31T11:27:51.331Z,32.25
2018-03-31T11:28:53.362Z,31.30
2018-03-31T11:29:56.154Z,31.70
2018-03-31T11:30:58.218Z,31.40
2018-03-31T11:32:00.245Z,33.65
2018-03-31T11:33:03.042Z,33.00
2018-03-31T11:34:05.091Z,31.20
2018-03-31T11:35:07.133Z,32.33
2018-03-31T11:36:09.969Z,32.83
2018-03-31T11:37:12.001Z,32.58
2018-03-31T11:38:14.034Z,32.15
2018-03-31T11:39:16.061Z,34.70
2018-03-31T11:40:18.864Z,33.67
2018-03-31T11:41:20.946Z,34.58
2018-03-31T11:42:23.005Z,34.80
2018-03-31T11:43:25.025Z,31.70
2018-03-31T11:44:27.062Z,31.55
2018-03-31T11:45:29.247Z,31.00
2018-03-31T11:46:31.327Z,31.35
2018-03-31T11:47:33.373Z,33.28
2018-03-31T11:48:35.409Z,33.10
2018-03-31T11:49:37.442Z,32.90
2018-03-31T11:50:39.481Z,34.55
2018-03-31T11:51:42.309Z,33.58
2018-03-31T11:52:44.352Z,34.83
2018-03-31T11:53:46.376Z,32.97
2018-03-31T11:54:48.408Z,33.88
2018-03-31T11:55:50.441Z,33.03
2018-03-31T11:56:52.517Z,33.70
2018-03-31T11:57:54.558Z,34.03
2018-03-31T11:58:56.598Z,32.72
2018-03-31T11:59:58.634Z,34.83
2018-03-31T12:01:00.676Z,32.45
2018-03-31T12:02:02.749Z,35.03
2018-03-31T12:03:04.778Z,33.95
2018-03-31T12:04:06.817Z,33.45
2018-03-31T12:05:08.990Z,33.20
2018-03-31T12:06:11.018Z,33.90
2018-03-31T12:07:13.862Z,33.78
2018-03-31T12:08:15.899Z,33.42
2018-03-31T12:09:17.936Z,34.40
2018-03-31T12:10:20.003Z,35.78
2018-03-31T12:11:22.038Z,39.35
2018-03-31T12:12:24.078Z,36.22
2018-03-31T12:13:26.112Z,31.95
2018-03-31T12:14:28.922Z,30.92
2018-03-31T12:15:30.989Z,30.90
2018-03-31T12:16:33.054Z,31.12
2018-03-31T12:17:35.094Z,31.05
2018-03-31T12:18:37.153Z,29.45
2018-03-31T12:19:39.185Z,28.85
2018-03-31T12:20:41.228Z,30.05
2018-03-31T12:21:44.038Z,30.20
2018-03-31T12:22:46.110Z,28.33
2018-03-31T12:23:48.143Z,29.00
2018-03-31T12:24:50.185Z,28.25
2018-03-31T12:25:52.213Z,28.85
2018-03-31T12:26:55.062Z,28.30
2018-03-31T12:27:57.094Z,26.90
2018-03-31T12:28:59.120Z,26.87
2018-03-31T12:30:01.166Z,29.50
2018-03-31T12:31:03.205Z,28.45
2018-03-31T12:32:06.042Z,28.45
2018-03-31T12:33:08.085Z,29.20
2018-03-31T12:34:10.113Z,27.20
2018-03-31T12:35:12.183Z,28.95
2018-03-31T12:36:14.225Z,28.70
2018-03-31T12:37:16.252Z,27.73
2018-03-31T12:38:19.084Z,26.87
2018-03-31T12:39:21.161Z,27.48
2018-03-31T12:40:23.189Z,28.15
2018-03-31T12:41:25.217Z,27.75
2018-03-31T12:42:27.269Z,28.12
2018-03-31T12:43:29.346Z,27.80
2018-03-31T12:44:31.414Z,27.45
2018-03-31T12:45:33.466Z,29.35
2018-03-31T12:46:35.498Z,27.75
2018-03-31T12:47:37.544Z,27.70
2018-03-31T12:48:39.585Z,28.08
2018-03-31T12:49:41.658Z,28.87
2018-03-31T12:50:43.704Z,26.95
2018-03-31T12:51:45.829Z,28.62
2018-03-31T12:52:47.870Z,29.37
2018-03-31T12:53:49.908Z,27.95
2018-03-31T12:54:51.954Z,29.15
2018-03-31T12:55:57.404Z,28.98
2018-03-31T12:56:59.444Z,26.55
2018-03-31T12:58:01.517Z,28.23
2018-03-31T12:59:03.576Z,27.23
2018-03-31T13:00:05.618Z,28.40
2018-03-31T13:01:07.667Z,27.75
2018-03-31T13:02:09.693Z,28.90
2018-03-31T13:03:11.806Z,27.20
2018-03-31T13:04:13.917Z,28.50
2018-03-31T13:05:15.949Z,27.37
2018-03-31T13:06:17.978Z,27.83
2018-03-31T13:07:20.779Z,28.65
2018-03-31T13:08:22.849Z,26.17
2018-03-31T13:09:24.904Z,28.60
2018-03-31T13:10:26.928Z,27.10
2018-03-31T13:11:29.723Z,26.85
2018-03-31T13:12:31.752Z,26.55
2018-03-31T13:13:34.543Z,26.23
2018-03-31T13:14:36.605Z,26.60
2018-03-31T13:15:38.643Z,27.00
2018-03-31T13:16:40.678Z,28.25
2018-03-31T13:17:43.515Z,27.87
2018-03-31T13:18:45.543Z,26.85
2018-03-31T13:19:47.566Z,28.58
2018-03-31T13:20:50.361Z,29.90